Time;durP1;ratioP1;P1;durP2;ratioP2;P2;SDS_P1;SDS_P2;PMS_P1;PMS_P2;Temp;Humidity;BMP_temperature;BMP_pressure;BME280_temperature;BME280_humidity;BME280_pressure;Samples;Min_cycle;Max_cycle;Signal;HPM_P1;HPM_P2
2024/03/05 00:00:25;;;;;;;;;;;;;;;5.12;100.00;101260.75;5068671;28;20180;-77
2024/03/05 00:02:50;;;;;;;;;;;;;;;5.13;100.00;101265.91;5074704;28;19958;-77
2024/03/05 00:05:16;;;;;;;;;;;;;;;5.15;100.00;101263.31;5076947;28;19916;-77
2024/03/05 00:07:41;;;;;;;;;;;;;;;5.16;100.00;101265.88;5074005;28;20244;-77
2024/03/05 00:10:09;;;;;;;;;;;;;;;5.15;100.00;101261.56;5073219;28;19920;-77
2024/03/05 00:12:35;;;;;;;;;;;;;;;5.14;100.00;101262.44;5080687;28;19927;-77
2024/03/05 00:15:00;;;;;;;;;;;;;;;5.12;100.00;101271.97;5057144;28;20115;-77
2024/03/05 00:17:26;;;;;;;;;;;;;;;5.10;100.00;101267.69;5073229;28;20014;-77
2024/03/05 00:19:51;;;;;;;;;;;;;;;5.10;100.00;101267.69;5074910;28;19924;-77
2024/03/05 00:22:17;;;;;;;;;;;;;;;5.08;100.00;101265.09;5076338;28;19916;-77
2024/03/05 00:24:43;;;;;;;;;;;;;;;5.08;100.00;101265.09;5070238;28;19952;-77
2024/03/05 00:27:09;;;;;;;;;;;;;;;5.07;100.00;101263.38;5094038;28;20139;-77
2024/03/05 00:29:34;;;;;;;;;;;;;;;5.05;100.00;101267.72;5082812;28;19960;-77
2024/03/05 00:31:59;;;;;;;;;;;;;;;5.04;100.00;101266.03;5059422;28;19928;-77
2024/03/05 00:34:25;;;;;;;;;;;;;;;5.02;100.00;101266.91;5080551;28;20219;-77
2024/03/05 00:36:50;;;;;;;;;;;;;;;4.99;100.00;101268.66;5082115;28;20008;-77
2024/03/05 00:39:15;;;;;;;;;;;;;;;4.99;100.00;101267.81;5087293;28;19920;-77
2024/03/05 00:41:41;;;;;;;;;;;;;;;4.94;100.00;101267.84;5090391;28;19974;-77
2024/03/05 00:44:07;;;;;;;;;;;;;;;4.90;100.00;101271.34;5083094;28;19920;-77
2024/03/05 00:46:32;;;;;;;;;;;;;;;4.87;100.00;101267.94;5092848;28;19924;-77
2024/03/05 00:48:58;;;;;;;;;;;;;;;4.85;100.00;101261.91;5092685;28;19964;-77
2024/03/05 00:51:23;;;;;;;;;;;;;;;4.83;100.00;101269.69;5089953;28;20230;-77
2024/03/05 00:53:48;;;;;;;;;;;;;;;4.81;100.00;101263.66;5085710;28;19916;-77
2024/03/05 00:56:14;;;;;;;;;;;;;;;4.80;100.00;101262.81;5094365;28;19951;-77
2024/03/05 00:58:39;;;;;;;;;;;;;;;4.79;100.00;101262.81;5086431;28;20204;-77
2024/03/05 01:01:07;;;;;;;;;;;;;;;4.78;100.00;101264.56;5091005;28;19916;-77
2024/03/05 01:03:32;;;;;;;;;;;;;;;4.78;100.00;101258.50;5076529;28;19922;-77
2024/03/05 01:05:57;;;;;;;;;;;;;;;4.79;100.00;101255.03;5079176;28;20146;-77
2024/03/05 01:08:23;;;;;;;;;;;;;;;4.80;100.00;101256.75;5094702;28;19931;-77
2024/03/05 01:10:48;;;;;;;;;;;;;;;4.85;100.00;101261.91;5094427;28;19922;-77
2024/03/05 01:13:14;;;;;;;;;;;;;;;4.85;100.00;101254.97;5091879;28;20151;-77
2024/03/05 01:15:39;;;;;;;;;;;;;;;4.86;100.00;101248.03;5080467;28;20158;-77
2024/03/05 01:18:04;;;;;;;;;;;;;;;4.90;100.00;101248.00;5094176;28;19920;-77
2024/03/05 01:20:29;;;;;;;;;;;;;;;4.90;100.00;101245.41;5086963;28;19924;-77
2024/03/05 01:22:55;;;;;;;;;;;;;;;4.90;100.00;101248.00;5086117;28;19997;-77
2024/03/05 01:25:20;;;;;;;;;;;;;;;4.92;100.00;101253.16;5089288;28;19927;-77
2024/03/05 01:27:45;;;;;;;;;;;;;;;4.92;100.00;101240.19;5090188;28;19975;-77
2024/03/05 01:30:11;;;;;;;;;;;;;;;4.92;100.00;101240.19;5082911;28;19962;-77
2024/03/05 01:32:39;;;;;;;;;;;;;;;4.88;100.00;101230.72;5093918;28;19988;-77
2024/03/05 01:35:11;;;;;;;;;;;;;;;4.90;100.00;101231.56;5088047;28;19923;-77
2024/03/05 01:37:37;;;;;;;;;;;;;;;4.92;100.00;101243.63;5065177;28;19924;-77
2024/03/05 01:40:04;;;;;;;;;;;;;;;4.95;100.00;101234.97;5093601;28;20153;-77
2024/03/05 01:42:29;;;;;;;;;;;;;;;4.93;100.00;101221.13;5086971;28;19979;-77
2024/03/05 01:44:55;;;;;;;;;;;;;;;4.90;100.00;101226.38;5081127;28;19923;-77
2024/03/05 01:47:20;;;;;;;;;;;;;;;4.87;100.00;101232.44;5075398;28;20443;-77
2024/03/05 01:49:46;;;;;;;;;;;;;;;4.84;100.00;101226.44;5092092;28;20203;-77
2024/03/05 01:52:11;;;;;;;;;;;;;;;4.83;100.00;101228.16;5077641;28;19968;-77
2024/03/05 01:54:36;;;;;;;;;;;;;;;4.80;100.00;101223.88;5074914;28;19923;-77
2024/03/05 01:57:02;;;;;;;;;;;;;;;4.79;100.00;101224.75;5081560;28;19920;-77
2024/03/05 01:59:28;;;;;;;;;;;;;;;4.78;100.00;101227.34;5075324;28;19920;-77
2024/03/05 02:01:53;;;;;;;;;;;;;;;4.74;100.00;101234.31;5087238;28;19995;-77
2024/03/05 02:04:19;;;;;;;;;;;;;;;4.72;100.00;101230.03;5088869;28;20010;-77
2024/03/05 02:06:46;;;;;;;;;;;;;;;4.67;100.00;101227.47;5088807;28;19991;-77
2024/03/05 02:09:11;;;;;;;;;;;;;;;4.65;100.00;101225.78;5088952;28;20183;-77
2024/03/05 02:11:45;;;;;;;;;;;;;;;4.64;100.00;101227.50;5078575;28;19926;-77
2024/03/05 02:14:11;;;;;;;;;;;;;;;4.61;100.00;101232.72;5068038;28;20003;-77
2024/03/05 02:16:36;;;;;;;;;;;;;;;4.60;100.00;101229.28;5093022;28;19920;-77
2024/03/05 02:19:05;;;;;;;;;;;;;;;4.59;100.00;101230.13;5090690;28;20231;-77
2024/03/05 02:21:31;;;;;;;;;;;;;;;4.54;100.00;101225.88;5080026;28;19968;-77
2024/03/05 02:23:57;;;;;;;;;;;;;;;4.55;100.00;101230.19;5074504;28;19920;-77
2024/03/05 02:26:23;;;;;;;;;;;;;;;4.52;100.00;101227.63;5086465;28;19927;-77
2024/03/05 02:28:49;;;;;;;;;;;;;;;4.50;100.00;101227.63;5083849;28;19920;-77
2024/03/05 02:31:15;;;;;;;;;;;;;;;4.49;100.00;101227.63;5082843;28;20198;-77
2024/03/05 02:33:42;;;;;;;;;;;;;;;4.49;100.00;101231.09;5074013;28;19921;-77
2024/03/05 02:36:08;;;;;;;;;;;;;;;4.50;100.00;101237.16;5080302;28;19919;-77
2024/03/05 02:38:33;;;;;;;;;;;;;;;4.52;100.00;101235.41;5093061;28;19927;-77
2024/03/05 02:40:59;;;;;;;;;;;;;;;4.56;100.00;101242.28;5084313;28;19924;-77
2024/03/05 02:43:24;;;;;;;;;;;;;;;4.53;100.00;101232.81;5078239;28;20196;-77
2024/03/05 02:45:49;;;;;;;;;;;;;;;4.56;100.00;101229.31;5083125;28;19946;-77
2024/03/05 02:48:14;;;;;;;;;;;;;;;4.56;100.00;101227.56;5074190;28;20192;-77
2024/03/05 02:50:39;;;;;;;;;;;;;;;4.56;100.00;101230.16;5073251;28;19920;-77
2024/03/05 02:53:06;;;;;;;;;;;;;;;4.63;100.00;101223.19;5090057;28;20139;-77
2024/03/05 02:55:31;;;;;;;;;;;;;;;4.67;100.00;101221.41;5089810;28;19920;-77
2024/03/05 02:57:57;;;;;;;;;;;;;;;4.69;100.00;101222.25;5080646;28;19982;-77
2024/03/05 03:00:24;;;;;;;;;;;;;;;4.69;100.00;101217.91;5087846;28;19926;-77
2024/03/05 03:02:49;;;;;;;;;;;;;;;4.71;100.00;101229.16;5058291;28;19917;-77
2024/03/05 03:05:16;;;;;;;;;;;;;;;4.65;100.00;101233.56;5077436;28;19967;-77
2024/03/05 03:07:43;;;;;;;;;;;;;;;4.61;100.00;101223.19;5077037;28;19971;-77
2024/03/05 03:10:09;;;;;;;;;;;;;;;4.59;100.00;101231.88;5077192;28;20142;-77
2024/03/05 03:12:35;;;;;;;;;;;;;;;4.56;100.00;101227.56;5077059;28;19921;-77
2024/03/05 03:15:00;;;;;;;;;;;;;;;4.53;100.00;101234.50;5084405;28;19926;-77
2024/03/05 03:17:25;;;;;;;;;;;;;;;4.54;100.00;101228.47;5078403;28;20151;-77
2024/03/05 03:19:50;;;;;;;;;;;;;;;4.54;100.00;101231.06;5081720;28;19951;-77
2024/03/05 03:22:16;;;;;;;;;;;;;;;4.53;100.00;101239.69;5091069;28;19920;-77
2024/03/05 03:24:42;;;;;;;;;;;;;;;4.53;100.00;101237.09;5084726;28;20383;-77
2024/03/05 03:27:08;;;;;;;;;;;;;;;4.52;100.00;101238.00;5081324;28;20249;-77
2024/03/05 03:29:34;;;;;;;;;;;;;;;4.51;100.00;101231.97;5077840;28;19943;-77
2024/03/05 03:31:59;;;;;;;;;;;;;;;4.50;100.00;101237.16;5069957;28;20011;-77
2024/03/05 03:34:24;;;;;;;;;;;;;;;4.48;100.00;101236.31;5096107;28;19927;-77
2024/03/05 03:36:49;;;;;;;;;;;;;;;4.45;100.00;101239.78;5083831;28;19927;-77
2024/03/05 03:39:23;;;;;;;;;;;;;;;4.45;100.00;101233.75;5083868;28;19920;-77
2024/03/05 03:41:51;;;;;;;;;;;;;;;4.41;100.00;101228.56;5086898;28;19924;-76
2024/03/05 03:44:17;;;;;;;;;;;;;;;4.42;100.00;101230.31;5096130;28;19912;-76
2024/03/05 03:46:42;;;;;;;;;;;;;;;4.52;100.00;101227.63;5076186;28;20208;-76
2024/03/05 03:49:09;;;;;;;;;;;;;;;4.66;100.00;101224.88;5077021;28;20387;-76
2024/03/05 03:51:34;;;;;;;;;;;;;;;4.74;100.00;101221.34;5083613;28;19924;-76
2024/03/05 03:54:00;;;;;;;;;;;;;;;4.75;100.00;101223.06;5075881;28;20262;-76
2024/03/05 03:56:25;;;;;;;;;;;;;;;4.73;100.00;101230.00;5087796;28;19920;-76
2024/03/05 03:58:51;;;;;;;;;;;;;;;4.72;100.00;101222.25;5088820;28;19954;-75
2024/03/05 04:01:17;;;;;;;;;;;;;;;4.71;100.00;101223.97;5080907;28;19923;-76
2024/03/05 04:03:42;;;;;;;;;;;;;;;4.70;100.00;101230.03;5082929;28;20254;-76
2024/03/05 04:06:08;;;;;;;;;;;;;;;4.72;100.00;101228.28;5075772;28;19920;-76
2024/03/05 04:08:33;;;;;;;;;;;;;;;4.75;100.00;101224.81;5080445;28;20185;-76
2024/03/05 04:10:59;;;;;;;;;;;;;;;4.79;100.00;101235.13;5094333;28;19924;-76
2024/03/05 04:13:24;;;;;;;;;;;;;;;4.79;100.00;101224.75;5096038;28;19916;-76
2024/03/05 04:15:50;;;;;;;;;;;;;;;4.79;100.00;101235.13;5086257;28;20004;-75
2024/03/05 04:18:15;;;;;;;;;;;;;;;4.79;100.00;101236.88;5089752;28;19924;-76
2024/03/05 04:20:40;;;;;;;;;;;;;;;4.78;100.00;101246.41;5085202;28;19962;-76
2024/03/05 04:23:06;;;;;;;;;;;;;;;4.78;100.00;101246.41;5075023;28;19954;-76
2024/03/05 04:25:36;;;;;;;;;;;;;;;4.78;100.00;101249.00;5075985;28;19928;-76
2024/03/05 04:28:02;;;;;;;;;;;;;;;4.78;100.00;101248.13;5075546;28;20208;-76
2024/03/05 04:30:28;;;;;;;;;;;;;;;4.79;100.00;101252.44;5075333;28;20008;-76
2024/03/05 04:33:03;;;;;;;;;;;;;;;4.79;100.00;101260.22;5075170;28;19951;-76
2024/03/05 04:35:29;;;;;;;;;;;;;;;4.77;100.00;101255.03;5075280;28;19921;-76
2024/03/05 04:37:55;;;;;;;;;;;;;;;4.77;100.00;101252.44;5075369;28;19975;-76
2024/03/05 04:40:21;;;;;;;;;;;;;;;4.77;100.00;101251.59;5075492;28;20077;-76
2024/03/05 04:42:48;;;;;;;;;;;;;;;4.78;100.00;101256.78;5075618;28;19987;-76
2024/03/05 04:45:14;;;;;;;;;;;;;;;4.71;100.00;101252.53;5081407;28;19987;-76
2024/03/05 04:47:39;;;;;;;;;;;;;;;4.73;100.00;101250.78;5079000;28;19928;-76
2024/03/05 04:50:05;;;;;;;;;;;;;;;4.75;100.00;101251.63;5083501;28;19920;-76
2024/03/05 04:52:30;;;;;;;;;;;;;;;4.76;100.00;101250.72;5083377;28;20171;-76
2024/03/05 04:54:56;;;;;;;;;;;;;;;4.78;100.00;101254.19;5093426;28;20118;-76
2024/03/05 04:57:21;;;;;;;;;;;;;;;4.80;100.00;101251.53;5081982;28;19920;-76
2024/03/05 04:59:46;;;;;;;;;;;;;;;4.81;100.00;101253.28;5081808;28;19924;-76
2024/03/05 05:02:11;;;;;;;;;;;;;;;4.84;100.00;101249.78;5075961;28;19935;-76
2024/03/05 05:04:41;;;;;;;;;;;;;;;4.86;100.00;101243.72;5074574;28;19921;-76
2024/03/05 05:07:07;;;;;;;;;;;;;;;4.89;100.00;101251.44;5074731;28;19962;-76
2024/03/05 05:09:32;;;;;;;;;;;;;;;4.94;100.00;101234.09;5074775;28;19986;-76
2024/03/05 05:11:58;;;;;;;;;;;;;;;4.96;100.00;101237.53;5078737;28;20088;-76
2024/03/05 05:14:23;;;;;;;;;;;;;;;4.96;100.00;101236.69;5086913;28;19951;-76
2024/03/05 05:16:48;;;;;;;;;;;;;;;4.96;100.00;101242.72;5079865;28;20003;-75
2024/03/05 05:19:16;;;;;;;;;;;;;;;4.97;100.00;101234.06;5090160;28;20297;-75
2024/03/05 05:21:43;;;;;;;;;;;;;;;5.01;100.00;101237.50;5089337;28;20154;-76
2024/03/05 05:24:09;;;;;;;;;;;;;;;5.02;100.00;101238.34;5089486;28;20268;-75
2024/03/05 05:26:34;;;;;;;;;;;;;;;5.04;100.00;101239.19;5081138;28;20276;-76
2024/03/05 05:29:00;;;;;;;;;;;;;;;5.03;100.00;101240.94;5074268;28;19970;-76
2024/03/05 05:31:26;;;;;;;;;;;;;;;5.10;100.00;101245.19;5057511;28;20155;-76
2024/03/05 05:33:51;;;;;;;;;;;;;;;5.14;100.00;101243.41;5083646;28;20122;-75
2024/03/05 05:36:17;;;;;;;;;;;;;;;5.23;100.00;101243.28;5088366;28;19985;-76
2024/03/05 05:38:42;;;;;;;;;;;;;;;5.19;100.00;101245.06;5074269;28;20234;-76
2024/03/05 05:41:07;;;;;;;;;;;;;;;5.19;100.00;101246.81;5074076;28;20239;-75
2024/03/05 05:43:33;;;;;;;;;;;;;;;5.17;100.00;101240.78;5078312;28;19991;-76
2024/03/05 05:45:58;;;;;;;;;;;;;;;5.19;100.00;101244.22;5093229;28;19928;-76
2024/03/05 05:48:23;;;;;;;;;;;;;;;5.23;100.00;101240.69;5076965;28;19927;-76
2024/03/05 05:50:52;;;;;;;;;;;;;;;5.23;100.00;101248.47;5083494;28;20229;-75
2024/03/05 05:53:18;;;;;;;;;;;;;;;5.23;100.00;101252.84;5080960;28;19920;-76
2024/03/05 05:55:43;;;;;;;;;;;;;;;5.22;100.00;101251.97;5078731;28;20033;-76
2024/03/05 05:58:08;;;;;;;;;;;;;;;5.20;100.00;101256.31;5078758;28;19949;-76
2024/03/05 06:00:36;;;;;;;;;;;;;;;5.21;100.00;101259.78;5082578;28;20258;-76
2024/03/05 06:03:03;;;;;;;;;;;;;;;5.21;100.00;101262.38;5073430;28;19921;-75
2024/03/05 06:05:31;;;;;;;;;;;;;;;5.24;100.00;101255.41;5081430;28;19931;-75
2024/03/05 06:07:58;;;;;;;;;;;;;;;5.26;100.00;101265.78;5080903;28;19998;-75
2024/03/05 06:10:24;;;;;;;;;;;;;;;5.27;100.00;101264.91;5074600;28;20257;-76
2024/03/05 06:12:50;;;;;;;;;;;;;;;5.29;100.00;101270.94;5073590;28;19921;-76
2024/03/05 06:15:18;;;;;;;;;;;;;;;5.29;100.00;101265.72;5091769;28;19974;-76
2024/03/05 06:17:45;;;;;;;;;;;;;;;5.30;100.00;101267.47;5083258;28;19926;-75
2024/03/05 06:20:11;;;;;;;;;;;;;;;5.32;100.00;101258.75;5076085;28;19951;-75
2024/03/05 06:22:39;;;;;;;;;;;;;;;5.39;100.00;101257.81;5073386;28;19987;-76
2024/03/05 06:25:08;;;;;;;;;;;;;;;5.47;100.00;101269.84;5073483;28;19920;-76
2024/03/05 06:27:36;;;;;;;;;;;;;;;5.49;100.00;101268.94;5074082;28;20093;-76
2024/03/05 06:30:02;;;;;;;;;;;;;;;5.50;100.00;101275.84;5073823;28;19920;-76
2024/03/05 06:32:27;;;;;;;;;;;;;;;5.49;100.00;101275.88;5059442;28;19921;-75
2024/03/05 06:34:54;;;;;;;;;;;;;;;5.45;100.00;101277.66;5079944;28;20306;-76
2024/03/05 06:37:19;;;;;;;;;;;;;;;5.46;100.00;101274.19;5091935;28;19927;-76
2024/03/05 06:39:46;;;;;;;;;;;;;;;5.47;100.00;101283.69;5077721;28;20395;-76
2024/03/05 06:42:13;;;;;;;;;;;;;;;5.50;100.00;101277.59;5064504;28;19958;-76
2024/03/05 06:44:40;;;;;;;;;;;;;;;5.51;100.00;101282.78;5058523;28;19923;-76
2024/03/05 06:47:05;;;;;;;;;;;;;;;5.53;100.00;101282.75;5059626;28;20162;-76
2024/03/05 06:49:38;;;;;;;;;;;;;;;5.51;100.00;101287.97;5089992;28;19991;-75
2024/03/05 06:57:32;;;;;;;;;;;;;;;5.48;100.00;101301.00;5083561;28;20111;-76
2024/03/05 06:59:57;;;;;;;;;;;;;;;5.47;100.00;101290.63;5076179;28;19991;-75
2024/03/05 07:02:26;;;;;;;;;;;;;;;5.48;100.00;101297.56;5077348;28;19927;-76
2024/03/05 07:04:53;;;;;;;;;;;;;;;5.47;100.00;101293.22;5066176;28;19920;-75
2024/03/05 07:07:18;;;;;;;;;;;;;;;5.48;100.00;101300.16;5080805;28;20183;-75
2024/03/05 07:09:43;;;;;;;;;;;;;;;5.51;100.00;101297.50;5093022;28;20121;-75
2024/03/05 07:12:09;;;;;;;;;;;;;;;5.50;100.00;101299.25;5092758;28;19929;-75
2024/03/05 07:14:34;;;;;;;;;;;;;;;5.50;100.00;101299.25;5081484;28;19985;-77
2024/03/05 07:17:00;;;;;;;;;;;;;;;5.53;100.00;101293.13;5059520;28;19920;-75
2024/03/05 07:19:26;;;;;;;;;;;;;;;5.57;100.00;101292.25;5073957;28;19924;-76
2024/03/05 07:21:52;;;;;;;;;;;;;;;5.66;100.00;101292.13;5077974;28;19925;-76
2024/03/05 07:24:17;;;;;;;;;;;;;;;5.71;100.00;101289.44;5076944;28;19927;-76
2024/03/05 07:26:42;;;;;;;;;;;;;;;5.70;100.00;101286.00;5078481;28;19920;-76
2024/03/05 07:29:08;;;;;;;;;;;;;;;5.76;100.00;101295.44;5076194;28;19955;-76
2024/03/05 07:31:33;;;;;;;;;;;;;;;5.83;100.00;101294.47;5088526;28;19920;-76
2024/03/05 07:33:58;;;;;;;;;;;;;;;5.88;100.00;101287.47;5077433;28;19920;-76
2024/03/05 07:36:24;;;;;;;;;;;;;;;5.95;100.00;101285.66;5075901;28;20239;-76
2024/03/05 07:38:49;;;;;;;;;;;;;;;5.95;100.00;101294.34;5056158;28;19920;-76
2024/03/05 07:41:17;;;;;;;;;;;;;;;5.91;100.00;101299.56;5065477;28;19920;-76
2024/03/05 07:43:42;;;;;;;;;;;;;;;5.88;100.00;101302.22;5086334;28;19941;-76
2024/03/05 07:46:07;;;;;;;;;;;;;;;5.86;100.00;101311.78;5076173;28;19928;-76
2024/03/05 07:48:32;;;;;;;;;;;;;;;5.83;100.00;101314.44;5075996;28;19920;-76
2024/03/05 07:50:58;;;;;;;;;;;;;;;5.82;100.00;101317.91;5058842;28;19920;-76
2024/03/05 07:53:24;;;;;;;;;;;;;;;5.81;100.00;101311.00;5078620;28;19921;-76
2024/03/05 07:55:49;;;;;;;;;;;;;;;5.82;100.00;101313.56;5074615;28;19927;-76
2024/03/05 07:58:15;;;;;;;;;;;;;;;5.82;100.00;101321.38;5084487;28;19924;-76
2024/03/05 08:00:40;;;;;;;;;;;;;;;5.81;100.00;101311.84;5073259;28;19931;-76
2024/03/05 08:03:05;;;;;;;;;;;;;;;5.80;100.00;101312.72;5076595;28;19920;-77
2024/03/05 08:05:31;;;;;;;;;;;;;;;5.83;100.00;101311.81;5083629;28;19915;-77
2024/03/05 08:07:56;;;;;;;;;;;;;;;5.83;100.00;101307.47;5088683;28;20251;-76
2024/03/05 08:10:23;;;;;;;;;;;;;;;5.84;100.00;101309.22;5077707;28;20176;-77
2024/03/05 08:12:48;;;;;;;;;;;;;;;5.86;100.00;101320.44;5093602;28;19959;-77
2024/03/05 08:15:15;;;;;;;;;;;;;;;5.86;100.00;101322.19;5060631;28;20220;-76
2024/03/05 08:17:41;;;;;;;;;;;;;;;5.87;100.00;101329.94;5061193;28;19920;-77
2024/03/05 08:20:07;;;;;;;;;;;;;;;5.88;100.00;101334.28;5062858;28;19931;-76
2024/03/05 08:22:36;;;;;;;;;;;;;;;5.89;100.00;101332.53;5069363;28;20419;-76
2024/03/05 08:25:09;;;;;;;;;;;;;;;5.89;100.00;101335.97;5068440;28;20170;-76
2024/03/05 08:27:41;;;;;;;;;;;;;;;5.89;100.00;101332.53;5071476;28;19924;-76
2024/03/05 08:30:10;;;;;;;;;;;;;;;5.88;100.00;101334.28;5070113;28;19920;-76
2024/03/05 08:32:36;;;;;;;;;;;;;;;5.90;100.00;101335.13;5070323;28;19928;-77
2024/03/05 08:35:02;;;;;;;;;;;;;;;5.92;100.00;101335.94;5070942;28;19920;-76
2024/03/05 08:37:27;;;;;;;;;;;;;;;5.94;100.00;101346.34;5066421;28;20271;-76
2024/03/05 08:39:52;;;;;;;;;;;;;;;5.96;100.00;101344.59;5071273;28;19927;-76
2024/03/05 08:42:17;;;;;;;;;;;;;;;5.98;100.00;101347.19;5072067;28;20092;-76
2024/03/05 08:44:42;;;;;;;;;;;;;;;5.99;100.00;101344.56;5070507;28;19921;-76
2024/03/05 08:47:08;;;;;;;;;;;;;;;6.00;100.00;101345.41;5069484;28;19970;-77
2024/03/05 08:49:33;;;;;;;;;;;;;;;6.02;100.00;101344.53;5071025;28;20192;-76
2024/03/05 08:52:01;;;;;;;;;;;;;;;6.06;100.00;101346.22;5068259;28;19978;-76
2024/03/05 08:54:30;;;;;;;;;;;;;;;6.08;100.00;101341.00;5069963;28;20170;-77
2024/03/05 08:56:57;;;;;;;;;;;;;;;6.09;100.00;101351.38;5069744;28;20936;-77
2024/03/05 08:59:22;;;;;;;;;;;;;;;6.14;100.00;101351.28;5069929;28;20278;-77
2024/03/05 09:01:49;;;;;;;;;;;;;;;6.15;100.00;101353.03;5065441;28;20562;-76
2024/03/05 09:04:15;;;;;;;;;;;;;;;6.19;100.00;101359.03;5069004;28;20236;-77
2024/03/05 09:06:40;;;;;;;;;;;;;;;6.20;100.00;101355.53;5066919;28;19951;-76
2024/03/05 09:09:06;;;;;;;;;;;;;;;6.24;100.00;101360.69;5068771;28;19991;-76
2024/03/05 09:11:34;;;;;;;;;;;;;;;6.24;100.00;101365.00;5071121;28;20203;-76
2024/03/05 09:14:00;;;;;;;;;;;;;;;6.25;100.00;101369.34;5070546;28;19936;-76
2024/03/05 09:16:25;;;;;;;;;;;;;;;6.26;100.00;101358.94;5070477;28;19924;-76
2024/03/05 09:18:50;;;;;;;;;;;;;;;6.27;100.00;101365.81;5067455;28;20338;-76
2024/03/05 09:21:16;;;;;;;;;;;;;;;6.28;100.00;101362.38;5072965;28;20542;-76
2024/03/05 09:23:41;;;;;;;;;;;;;;;6.33;100.00;101354.47;5068608;28;20140;-76
2024/03/05 09:26:10;;;;;;;;;;;;;;;6.38;100.00;101357.88;5066417;28;20121;-76
2024/03/05 09:28:35;;;;;;;;;;;;;;;6.41;100.00;101365.63;5068943;28;19920;-77
2024/03/05 09:31:01;;;;;;;;;;;;;;;6.47;100.00;101362.94;5069330;28;20173;-77
2024/03/05 09:33:26;;;;;;;;;;;;;;;6.51;100.00;101364.63;5070520;28;19921;-76
2024/03/05 09:35:52;;;;;;;;;;;;;;;6.61;100.00;101359.28;5069757;28;19955;-76
2024/03/05 09:38:17;;;;;;;;;;;;;;;6.66;100.00;101360.06;5070376;28;20151;-76
2024/03/05 09:40:42;;;;;;;;;;;;;;;6.64;100.00;101367.91;5069647;28;19931;-76
2024/03/05 09:43:08;;;;;;;;;;;;;;;6.64;100.00;101364.41;5067313;28;19920;-76
2024/03/05 09:45:36;;;;;;;;;;;;;;;6.69;100.00;101367.81;5067800;28;19924;-76
2024/03/05 09:48:02;;;;;;;;;;;;;;;6.73;100.00;101374.69;5064171;28;19920;-76
2024/03/05 09:50:27;;;;;;;;;;;;;;;6.72;100.00;101372.97;5056955;28;19992;-76
2024/03/05 09:52:52;;;;;;;;;;;;;;;6.76;100.00;101381.59;5064458;28;20152;-76
2024/03/05 09:55:19;;;;;;;;;;;;;;;6.76;100.00;101371.19;5070172;28;19983;-76
2024/03/05 09:57:47;;;;;;;;;;;;;;;6.82;100.00;101379.75;5049168;28;19924;-76
2024/03/05 10:00:17;;;;;;;;;;;;;;;6.81;100.00;101387.59;5069515;28;20296;-76
2024/03/05 10:02:45;;;;;;;;;;;;;;;6.81;100.00;101387.59;5068040;28;19916;-76
2024/03/05 10:05:11;;;;;;;;;;;;;;;6.83;100.00;101391.88;5066514;28;19927;-76
2024/03/05 10:07:36;;;;;;;;;;;;;;;6.85;100.00;101395.31;5067227;28;19921;-76
2024/03/05 10:10:09;;;;;;;;;;;;;;;6.89;100.00;101396.13;5069142;28;19927;-77
2024/03/05 10:12:35;;;;;;;;;;;;;;;6.92;100.00;101393.47;5069012;28;19916;-76
2024/03/05 10:15:22;;;;;;;;;;;;;;;6.97;100.00;101394.25;5050341;28;19954;-76
2024/03/05 10:17:49;;;;;;;;;;;;;;;7.02;100.00;101396.78;5044897;28;19948;-76
2024/03/05 10:20:28;;;;;;;;;;;;;;;7.04;100.00;101395.88;5048320;28;19962;-76
2024/03/05 10:22:53;;;;;;;;;;;;;;;7.07;100.00;101401.00;5058278;28;20220;-76
2024/03/05 10:25:19;;;;;;;;;;;;;;;7.12;100.00;101403.56;5063421;28;19927;-76
2024/03/05 10:27:45;;;;;;;;;;;;;;;7.18;100.00;101403.44;5067895;28;20082;-76
2024/03/05 10:30:20;;;;;;;;;;;;;;;7.25;100.00;101402.44;5050433;28;20216;-76
2024/03/05 10:32:59;;;;;;;;;;;;;;;7.30;100.00;101405.84;5066633;28;19924;-76
2024/03/05 10:35:25;;;;;;;;;;;;;;;7.36;100.00;101404.84;5070276;28;19921;-76
2024/03/05 10:37:57;;;;;;;;;;;;;;;7.40;100.00;101409.13;5065954;28;20007;-76
2024/03/05 10:40:23;;;;;;;;;;;;;;;7.43;100.00;101414.28;5065788;28;19935;-76
2024/03/05 10:42:51;;;;;;;;;;;;;;;7.47;100.00;101413.31;5060002;28;19960;-76
2024/03/05 10:45:16;;;;;;;;;;;;;;;7.48;100.00;101412.47;5044591;28;19925;-76
2024/03/05 10:47:42;;;;;;;;;;;;;;;7.50;100.00;101415.88;5060273;28;20127;-76
2024/03/05 10:50:13;;;;;;;;;;;;;;;7.53;100.00;101415.00;5052525;28;20089;-76
2024/03/05 10:52:40;;;;;;;;;;;;;;;7.55;100.00;101422.75;5051997;28;20216;-76
2024/03/05 10:55:11;;;;;;;;;;;;;;;7.57;100.00;101415.78;5054612;28;19924;-76
2024/03/05 10:58:08;;;;;;;;;;;;;;;7.59;100.00;101419.22;5048198;28;20438;-76
2024/03/05 11:00:24;;;;;;;;;;;;;;;7.59;100.00;101412.25;5045583;28;20216;-76
2024/03/05 11:02:49;;;;;;;;;;;;;;;7.46;100.00;101416.84;5051103;28;19928;-76
2024/03/05 11:05:17;;;;;;;;;;;;;;;7.46;100.00;101426.41;5051045;28;19920;-76
2024/03/05 11:07:43;;;;;;;;;;;;;;;7.46;100.00;101421.22;5049000;28;20177;-76
2024/03/05 11:10:12;;;;;;;;;;;;;;;7.41;100.00;101428.25;5055554;28;20214;-76
2024/03/05 11:12:37;;;;;;;;;;;;;;;7.38;100.00;101429.13;5063892;28;20289;-76
2024/03/05 11:15:03;;;;;;;;;;;;;;;7.41;100.00;101425.63;5067009;28;19920;-76
2024/03/05 11:17:30;;;;;;;;;;;;;;;7.40;100.00;101424.75;5069749;28;19955;-76
2024/03/05 11:19:56;;;;;;;;;;;;;;;7.43;100.00;101427.31;5070074;28;19920;-76
2024/03/05 11:22:26;;;;;;;;;;;;;;;7.45;100.00;101427.28;5072434;28;19913;-76
2024/03/05 11:25:01;;;;;;;;;;;;;;;7.44;100.00;101425.56;5073730;28;20258;-76
2024/03/05 11:27:28;;;;;;;;;;;;;;;7.46;100.00;101432.47;5071087;28;19920;-76
2024/03/05 11:30:06;;;;;;;;;;;;;;;7.50;100.00;101425.47;5063632;28;19921;-76
2024/03/05 11:32:35;;;;;;;;;;;;;;;7.49;100.00;101419.41;5056263;28;19920;-76
2024/03/05 11:35:01;;;;;;;;;;;;;;;7.53;100.00;101419.31;5058409;28;20235;-76
2024/03/05 11:37:26;;;;;;;;;;;;;;;7.55;100.00;101425.38;5072471;28;19912;-76
2024/03/05 11:39:51;;;;;;;;;;;;;;;7.54;100.00;101419.31;5057446;28;19921;-76
2024/03/05 11:42:17;;;;;;;;;;;;;;;7.56;100.00;101419.28;5058271;28;20220;-76
2024/03/05 11:44:42;;;;;;;;;;;;;;;7.58;100.00;101420.94;5061167;28;19921;-76
2024/03/05 11:47:07;;;;;;;;;;;;;;;7.56;100.00;101422.72;5071399;28;19956;-76
2024/03/05 11:49:36;;;;;;;;;;;;;;;7.58;100.00;101423.56;5059180;28;20222;-76
2024/03/05 11:52:02;;;;;;;;;;;;;;;7.54;100.00;101427.13;5058994;28;19909;-76
2024/03/05 11:54:28;;;;;;;;;;;;;;;7.53;100.00;101432.34;5055775;28;19960;-76
2024/03/05 11:56:57;;;;;;;;;;;;;;;7.51;100.00;101427.16;5054324;28;19916;-76
2024/03/05 11:59:32;;;;;;;;;;;;;;;7.55;100.00;101425.38;5056707;28;19952;-76
2024/03/05 12:01:58;;;;;;;;;;;;;;;7.55;100.00;101426.25;5070684;28;19920;-76
2024/03/05 12:04:24;;;;;;;;;;;;;;;7.58;100.00;101422.72;5069394;28;20077;-76
2024/03/05 12:06:56;;;;;;;;;;;;;;;7.59;100.00;101427.91;5073012;28;20216;-75
2024/03/05 12:09:21;;;;;;;;;;;;;;;7.62;100.00;101432.19;5074077;28;19927;-76
2024/03/05 12:11:56;;;;;;;;;;;;;;;7.61;100.00;101433.94;5072780;28;19912;-76
2024/03/05 12:14:21;;;;;;;;;;;;;;;7.63;100.00;101431.31;5077103;28;19987;-76
2024/03/05 12:16:46;;;;;;;;;;;;;;;7.65;100.00;101438.19;5072530;28;19943;-76
2024/03/05 12:19:13;;;;;;;;;;;;;;;7.65;100.00;101437.34;5079688;28;19927;-76
2024/03/05 12:21:38;;;;;;;;;;;;;;;7.70;100.00;101438.13;5084989;28;20132;-76
2024/03/05 12:24:04;;;;;;;;;;;;;;;7.68;100.00;101443.38;5079745;28;19927;-76
2024/03/05 12:26:30;;;;;;;;;;;;;;;7.66;100.00;101439.94;5074395;28;20257;-76
2024/03/05 12:28:55;;;;;;;;;;;;;;;7.67;100.00;101449.44;5073773;28;19920;-76
2024/03/05 12:31:21;;;;;;;;;;;;;;;7.68;100.00;101448.56;5075313;28;19916;-76
2024/03/05 12:33:46;;;;;;;;;;;;;;;7.68;100.00;101452.94;5073768;28;20236;-76
2024/03/05 12:36:14;;;;;;;;;;;;;;;7.67;100.00;101443.38;5073587;28;19923;-76